Time;durP1;ratioP1;P1;durP2;ratioP2;P2;SDS_P1;SDS_P2;PMS_P1;PMS_P2;Temp;Humidity;BMP_temperature;BMP_pressure;BME280_temperature;BME280_humidity;BME280_pressure;Samples;Min_cycle;Max_cycle;Signal;HPM_P1;HPM_P2
2022/08/11 00:01:57;;;;;;;3.43;2.53;;;14.70;99.90;;;;;;5057739;28;20244;-79
2022/08/11 00:04:25;;;;;;;4.83;3.57;;;14.60;99.90;;;;;;5058199;28;20174;-79
2022/08/11 00:06:53;;;;;;;3.20;2.07;;;14.50;99.90;;;;;;5058277;28;20623;-80
2022/08/11 00:09:21;;;;;;;3.77;2.10;;;;;;;;;;5057366;28;20691;-80
2022/08/11 00:11:53;;;;;;;2.93;2.47;;;14.60;99.90;;;;;;5058238;28;20207;-80
2022/08/11 00:14:25;;;;;;;4.07;2.33;;;14.60;99.90;;;;;;5057894;28;20166;-80
2022/08/11 00:16:58;;;;;;;7.20;2.70;;;;;;;;;;5058291;28;20166;-80
2022/08/11 00:19:46;;;;;;;2.70;2.10;;;14.50;99.90;;;;;;5058026;28;20571;-79
2022/08/11 00:22:20;;;;;;;4.20;2.50;;;14.50;99.90;;;;;;5057857;28;20280;-80
2022/08/11 00:24:46;;;;;;;3.10;2.47;;;14.50;99.90;;;;;;5058096;28;20174;-80
2022/08/11 00:27:12;;;;;;;3.00;2.33;;;14.40;99.90;;;;;;5056934;28;20181;-79
2022/08/11 00:29:38;;;;;;;3.13;2.47;;;;;;;;;;5066061;28;20201;-80
2022/08/11 00:32:05;;;;;;;4.17;2.40;;;;;;;;;;5073352;28;20201;-80
2022/08/11 00:34:36;;;;;;;4.57;2.63;;;14.40;99.90;;;;;;5062044;28;20540;-80
2022/08/11 00:37:15;;;;;;;3.53;2.63;;;14.30;99.90;;;;;;5056877;28;20219;-81
2022/08/11 00:39:45;;;;;;;1.87;1.77;;;14.20;99.90;;;;;;5055907;28;20202;-80
2022/08/11 00:42:42;;;;;;;2.93;2.43;;;14.30;99.90;;;;;;5056756;28;20189;-79
2022/08/11 00:45:25;;;;;;;3.13;2.47;;;14.10;99.90;;;;;;5056741;28;20165;-80
2022/08/11 00:48:00;;;;;;;5.67;2.67;;;;;;;;;;5056681;28;20503;-80
2022/08/11 00:50:57;;;;;;;2.80;2.40;;;14.10;99.90;;;;;;5054976;28;20231;-80
2022/08/11 00:53:24;;;;;;;3.37;2.57;;;;;;;;;;5055819;28;20290;-80
2022/08/11 00:56:08;;;;;;;4.43;3.03;;;;;;;;;;5055458;28;20635;-80
2022/08/11 00:58:34;;;;;;;3.30;2.50;;;;;;;;;;5055245;28;20182;-80
2022/08/11 01:01:16;;;;;;;4.50;2.60;;;14.10;99.90;;;;;;5054759;28;20287;-79
2022/08/11 01:04:26;;;;;;;6.00;2.70;;;14.00;99.90;;;;;;5056434;28;20158;-80
2022/08/11 01:07:16;;;;;;;3.63;2.37;;;13.90;99.90;;;;;;5055210;28;20319;-79
2022/08/11 01:10:02;;;;;;;5.13;2.60;;;13.90;99.90;;;;;;5056631;28;20211;-80
2022/08/11 01:12:31;;;;;;;3.27;2.63;;;13.90;99.90;;;;;;5056517;28;20192;-80
2022/08/11 01:15:18;;;;;;;3.50;2.43;;;13.80;99.90;;;;;;5056732;28;20173;-80
2022/08/11 01:18:03;;;;;;;5.20;2.60;;;;;;;;;;5056610;28;20547;-80
2022/08/11 01:20:50;;;;;;;4.13;3.03;;;13.80;99.90;;;;;;5057323;28;20555;-80
2022/08/11 01:23:46;;;;;;;2.90;2.37;;;13.70;99.90;;;;;;5056870;28;20523;-80
2022/08/11 01:26:47;;;;;;;2.90;2.63;;;13.70;99.90;;;;;;5055756;28;20184;-80
2022/08/11 01:29:39;;;;;;;3.90;2.50;;;13.70;99.90;;;;;;5056881;28;20201;-80
2022/08/11 01:32:42;;;;;;;5.17;2.63;;;13.60;99.90;;;;;;5056272;28;20197;-80
2022/08/11 01:35:58;;;;;;;2.43;2.23;;;13.60;99.90;;;;;;5057089;28;20177;-80
2022/08/11 01:38:46;;;;;;;3.73;2.90;;;13.60;99.90;;;;;;5037070;28;20181;-80
2022/08/11 01:45:12;;;;;;;4.10;2.60;;;13.60;99.90;;;;;;5056112;28;20329;-80
2022/08/11 01:47:50;;;;;;;3.40;3.10;;;13.70;99.90;;;;;;5055575;28;20180;-80
2022/08/11 01:50:28;;;;;;;4.47;2.90;;;;;;;;;;5056167;28;20193;-80
2022/08/11 01:53:06;;;;;;;3.27;2.97;;;13.60;99.90;;;;;;5056114;28;20193;-80
2022/08/11 01:56:01;;;;;;;3.70;2.97;;;13.60;99.90;;;;;;5055184;28;20177;-80
2022/08/11 01:59:05;;;;;;;3.47;3.17;;;13.50;99.90;;;;;;5055173;28;20169;-80
2022/08/11 02:01:39;;;;;;;6.00;3.10;;;13.60;99.90;;;;;;5055402;28;20650;-80
2022/08/11 02:04:18;;;;;;;4.23;3.00;;;13.40;99.90;;;;;;5056334;28;20173;-80
2022/08/11 02:07:04;;;;;;;4.10;3.20;;;13.40;99.90;;;;;;5056252;28;20554;-80
2022/08/11 02:09:51;;;;;;;4.97;2.90;;;13.40;99.90;;;;;;5054555;28;20701;-80
2022/08/11 02:12:45;;;;;;;4.97;3.00;;;13.50;99.90;;;;;;5056477;28;20212;-80
2022/08/11 02:15:23;;;;;;;3.33;3.03;;;13.30;99.90;;;;;;5060127;28;20259;-80
2022/08/11 02:17:52;;;;;;;4.13;2.93;;;13.30;99.90;;;;;;5058930;28;20177;-80
2022/08/11 02:23:38;;;;;;;5.03;3.30;;;13.30;99.90;;;;;;5059822;28;20704;-79
2022/08/11 02:26:13;;;;;;;5.47;3.87;;;13.20;99.90;;;;;;5059770;28;20244;-80
2022/08/11 02:28:49;;;;;;;4.40;3.23;;;13.20;99.90;;;;;;5060109;28;20529;-79
2022/08/11 02:34:23;;;;;;;3.80;3.17;;;13.10;99.90;;;;;;5060053;28;20567;-80
2022/08/11 02:37:23;;;;;;;6.93;3.43;;;13.10;99.90;;;;;;5063227;28;20185;-80
2022/08/11 02:39:57;;;;;;;3.50;3.20;;;13.10;99.90;;;;;;5074166;28;20202;-80
2022/08/11 02:42:29;;;;;;;4.03;3.50;;;12.90;99.90;;;;;;5066917;28;20239;-80
2022/08/11 02:45:01;;;;;;;5.43;4.10;;;13.00;99.90;;;;;;5058433;28;20539;-79
2022/08/11 02:47:37;;;;;;;3.90;3.27;;;13.40;99.90;;;;;;5059625;28;20223;-80
2022/08/11 02:50:25;;;;;;;4.97;3.10;;;13.00;99.90;;;;;;5060168;28;20239;-80
2022/08/11 02:53:28;;;;;;;3.43;3.13;;;13.00;99.90;;;;;;5059805;28;20539;-80
2022/08/11 02:55:57;;;;;;;5.20;3.53;;;12.80;99.90;;;;;;5058293;28;20217;-80
2022/08/11 02:59:49;;;;;;;6.13;3.63;;;12.80;99.90;;;;;;5058125;28;20632;-80
2022/08/11 03:02:05;;;;;;;5.90;3.80;;;12.80;99.90;;;;;;5058915;28;20188;-80
2022/08/11 03:04:57;;;;;;;6.47;4.00;;;13.00;99.90;;;;;;5058233;28;20196;-80
2022/08/11 03:07:39;;;;;;;4.87;3.90;;;12.80;99.90;;;;;;5057791;28;20176;-80
2022/08/11 03:10:42;;;;;;;6.43;4.23;;;12.60;99.90;;;;;;5058878;28;20419;-80
2022/08/11 03:16:45;;;;;;;4.73;4.13;;;12.70;99.90;;;;;;5059522;28;20199;-80
2022/08/11 03:19:55;;;;;;;9.10;4.47;;;12.70;99.90;;;;;;5042320;28;20198;-81
2022/08/11 03:23:01;;;;;;;6.67;3.97;;;12.60;99.90;;;;;;5044558;28;20188;-79
2022/08/11 03:25:33;;;;;;;4.63;3.90;;;12.60;99.90;;;;;;5069817;28;20185;-79
2022/08/11 03:28:36;;;;;;;6.87;4.37;;;12.60;99.90;;;;;;5069553;28;20201;-79
2022/08/11 03:31:34;;;;;;;4.37;3.67;;;12.50;99.90;;;;;;5068559;28;20220;-80
2022/08/11 03:34:21;;;;;;;9.67;4.10;;;12.40;99.90;;;;;;5069566;28;20244;-79
2022/08/11 03:37:11;;;;;;;4.10;3.70;;;12.40;99.90;;;;;;5069113;28;20236;-80
2022/08/11 03:40:03;;;;;;;5.50;4.13;;;12.30;99.90;;;;;;5073430;28;20212;-79
2022/08/11 03:42:35;;;;;;;4.93;3.73;;;12.20;99.90;;;;;;5071126;28;20189;-79
2022/08/11 03:45:25;;;;;;;4.50;4.10;;;12.30;99.90;;;;;;5072255;28;20173;-79
2022/08/11 03:48:22;;;;;;;5.50;4.00;;;12.40;99.90;;;;;;5072529;28;20176;-79
2022/08/11 03:51:07;;;;;;;5.40;4.17;;;12.30;99.90;;;;;;5070935;28;20190;-80
2022/08/11 03:53:48;;;;;;;4.17;3.77;;;12.30;99.90;;;;;;5056525;28;20212;-80
2022/08/11 03:56:44;;;;;;;4.50;4.00;;;12.30;99.90;;;;;;5057674;28;20215;-80
2022/08/11 03:59:48;;;;;;;8.37;4.77;;;12.60;99.90;;;;;;5057294;28;20663;-80
2022/08/11 04:02:47;;;;;;;6.43;4.40;;;12.30;99.90;;;;;;5056394;28;20165;-80
2022/08/11 04:05:44;;;;;;;5.80;4.10;;;12.40;99.90;;;;;;5056678;28;20500;-80
2022/08/11 04:08:15;;;;;;;4.77;4.10;;;12.30;99.90;;;;;;5057255;28;20181;-83
2022/08/11 04:11:14;;;;;;;5.33;4.00;;;12.20;99.90;;;;;;5058729;28;20205;-79
2022/08/11 04:17:18;;;;;;;5.17;4.67;;;12.20;99.90;;;;;;5059460;28;20204;-79
2022/08/11 04:20:21;;;;;;;6.10;3.93;;;12.20;99.90;;;;;;5057546;28;20247;-80
2022/08/11 04:23:10;;;;;;;11.30;4.37;;;12.30;99.90;;;;;;5057735;28;20244;-80
2022/08/11 04:25:55;;;;;;;6.80;4.13;;;12.20;99.90;;;;;;5057454;28;20174;-80
2022/08/11 04:28:39;;;;;;;6.57;4.20;;;12.10;99.90;;;;;;5059234;28;20158;-80
2022/08/11 04:31:33;;;;;;;4.40;3.93;;;12.20;99.90;;;;;;5059187;28;20196;-80
2022/08/11 04:34:27;;;;;;;6.03;4.63;;;12.10;99.90;;;;;;5058006;28;20577;-81
2022/08/11 04:39:52;;;;;;;7.10;4.57;;;12.20;99.90;;;;;;5059272;28;20208;-80
2022/08/11 04:45:45;;;;;;;5.33;4.27;;;12.20;99.90;;;;;;5065091;28;20275;-80
2022/08/11 05:07:23;;;;;;;5.40;4.53;;;12.60;99.90;;;;;;5058165;28;20761;-80
2022/08/11 05:10:13;;;;;;;5.70;5.03;;;12.60;99.90;;;;;;5056476;28;20239;-81
2022/08/11 05:12:55;;;;;;;8.00;5.07;;;12.60;99.90;;;;;;5056347;28;20317;-81
2022/08/11 05:36:01;;;;;;;12.03;5.57;;;13.30;99.90;;;;;;5056454;28;20204;-82
2022/08/11 05:58:04;;;;;;;10.40;4.83;;;13.80;99.90;;;;;;5056837;28;20168;-84
2022/08/11 06:00:39;;;;;;;8.13;4.40;;;13.80;99.90;;;;;;5056873;28;20195;-82
2022/08/11 06:03:09;;;;;;;8.83;4.70;;;13.90;99.90;;;;;;5055842;28;20208;-83
2022/08/11 06:05:43;;;;;;;8.37;4.63;;;13.90;99.90;;;;;;5055432;28;20188;-81
2022/08/11 06:08:09;;;;;;;8.73;4.53;;;13.90;99.90;;;;;;5057241;28;20165;-81
2022/08/11 06:10:37;;;;;;;6.53;4.83;;;14.10;99.90;;;;;;5057089;28;20217;-82
2022/08/11 06:13:06;;;;;;;6.77;4.77;;;14.10;99.90;;;;;;5055109;28;20201;-82
2022/08/11 06:15:42;;;;;;;6.80;4.20;;;14.20;99.90;;;;;;5056627;28;20253;-81
2022/08/11 06:18:10;;;;;;;9.70;4.43;;;14.20;99.90;;;;;;5055172;28;20223;-82
2022/08/11 06:20:49;;;;;;;5.90;4.50;;;14.30;99.90;;;;;;5057091;28;20193;-82
2022/08/11 06:23:18;;;;;;;12.43;4.73;;;14.40;99.90;;;;;;5057327;28;20189;-81
2022/08/11 06:25:44;;;;;;;5.77;4.53;;;14.50;99.90;;;;;;5056746;28;20178;-81
2022/08/11 06:28:12;;;;;;;12.13;4.57;;;14.60;99.90;;;;;;5055197;28;20181;-81
2022/08/11 06:30:41;;;;;;;5.53;4.30;;;14.60;99.90;;;;;;5056674;28;20198;-81
2022/08/11 06:33:16;;;;;;;5.63;4.37;;;14.70;99.90;;;;;;5054016;28;20296;-78
2022/08/11 06:36:00;;;;;;;5.10;4.60;;;14.80;99.90;;;;;;5053419;28;20255;-80
2022/08/11 06:38:50;;;;;;;6.13;4.43;;;14.90;99.90;;;;;;5057066;28;20161;-81
2022/08/11 06:41:31;;;;;;;6.37;5.47;;;14.90;99.90;;;;;;5061043;28;20233;-79
2022/08/11 06:44:12;;;;;;;6.50;4.30;;;15.00;99.90;;;;;;5075047;28;20182;-79
2022/08/11 06:46:42;;;;;;;7.93;4.07;;;15.10;99.90;;;;;;5074561;28;20204;-79
2022/08/11 06:51:10;;;;;;;10.73;4.30;;;15.30;99.90;;;;;;5074366;28;20216;-79
2022/08/11 06:52:00;;;;;;;4.73;4.07;;;15.10;99.90;;;;;;5071480;28;20210;-79
2022/08/11 06:54:31;;;;;;;8.20;4.17;;;15.50;99.90;;;;;;5075341;28;20161;-80
2022/08/11 07:02:36;;;;;;;6.53;4.10;;;15.80;99.90;;;;;;5060293;28;20215;-81
2022/08/11 07:05:07;;;;;;;3.90;3.57;;;15.70;99.90;;;;;;5058638;28;20217;-81
2022/08/11 07:16:30;;;;;;;4.53;3.47;;;16.10;99.90;;;;;;5060423;28;20171;-81
2022/08/11 07:30:38;;;;;;;6.53;3.70;;;17.10;99.90;;;;;;5060657;28;20583;-79
2022/08/11 07:33:05;;;;;;;6.57;3.27;;;17.50;99.90;;;;;;5057426;28;20219;-79
2022/08/11 07:35:36;;;;;;;5.93;3.50;;;17.40;99.90;;;;;;5056799;28;20171;-81
2022/08/11 07:38:06;;;;;;;4.43;3.40;;;17.60;99.90;;;;;;5058954;28;20185;-78
2022/08/11 07:40:34;;;;;;;4.27;3.50;;;17.70;99.90;;;;;;5057544;28;20186;-81
2022/08/11 07:43:00;;;;;;;4.07;3.27;;;17.60;99.90;;;;;;5056534;28;20273;-79
2022/08/11 07:53:45;;;;;;;4.50;3.50;;;18.40;99.90;;;;;;5057954;28;20240;-78
2022/08/11 07:56:15;;;;;;;7.93;3.70;;;18.40;99.90;;;;;;5057301;28;20198;-78
2022/08/11 08:18:07;;;;;;;8.80;3.20;;;19.70;99.90;;;;;;5057665;28;20163;-78
2022/08/11 08:20:54;;;;;;;3.57;2.73;;;20.10;99.90;;;;;;5056503;28;20198;-79
2022/08/11 08:23:34;;;;;;;5.03;3.10;;;20.20;99.90;;;;;;5056199;28;20188;-79
2022/08/11 08:26:03;;;;;;;6.50;3.47;;;20.30;99.90;;;;;;5056272;28;20267;-79
2022/08/11 08:28:29;;;;;;;6.47;3.47;;;20.40;99.90;;;;;;5056451;28;20239;-79
2022/08/11 08:30:57;;;;;;;8.67;3.30;;;20.70;99.90;;;;;;5057749;28;20189;-79
2022/08/11 08:33:26;;;;;;;6.10;3.10;;;20.50;99.90;;;;;;5056692;28;20214;-79
2022/08/11 08:36:12;;;;;;;4.07;2.97;;;20.60;99.90;;;;;;5057996;28;20212;-79
2022/08/11 08:38:45;;;;;;;4.83;2.80;;;20.80;99.90;;;;;;5056783;28;20236;-79
2022/08/11 08:41:13;;;;;;;6.80;3.00;;;21.00;99.90;;;;;;5057334;28;20220;-79
2022/08/11 08:43:41;;;;;;;6.50;3.03;;;21.50;99.90;;;;;;5057894;28;20169;-79
2022/08/11 08:46:09;;;;;;;3.60;3.00;;;21.70;99.90;;;;;;5058559;28;20631;-79
2022/08/11 08:48:35;;;;;;;7.73;3.37;;;21.70;99.90;;;;;;5057091;28;20690;-79
2022/08/11 08:53:53;;;;;;;3.80;3.20;;;21.70;99.90;;;;;;5057284;28;20200;-79
2022/08/11 08:56:26;;;;;;;5.27;3.03;;;21.90;99.90;;;;;;5056057;28;20174;-79
2022/08/11 08:58:53;;;;;;;5.17;3.10;;;22.10;99.90;;;;;;5055376;28;20565;-79
2022/08/11 09:01:21;;;;;;;7.23;2.90;;;22.30;99.90;;;;;;5057382;28;20181;-79
2022/08/11 09:03:47;;;;;;;3.57;2.77;;;;;;;;;;5059972;28;20183;-79
2022/08/11 09:06:15;;;;;;;5.03;2.97;;;22.80;99.90;;;;;;5071988;28;20178;-79
2022/08/11 09:08:43;;;;;;;3.00;2.80;;;22.80;99.90;;;;;;5072027;28;20227;-79
2022/08/11 09:13:55;;;;;;;8.80;3.67;;;23.10;99.90;;;;;;5056779;28;20231;-79
2022/08/11 09:16:23;;;;;;;6.60;2.87;;;23.00;99.90;;;;;;5056756;28;20746;-79
2022/08/11 09:18:50;;;;;;;5.43;2.90;;;23.70;99.90;;;;;;5056316;28;20173;-79
2022/08/11 09:21:21;;;;;;;4.33;2.80;;;23.60;99.90;;;;;;5056428;28;20632;-79
2022/08/11 09:26:58;;;;;;;4.30;3.27;;;23.80;99.90;;;;;;5056873;28;20177;-79
2022/08/11 09:29:26;;;;;;;5.63;2.70;;;24.00;99.90;;;;;;5056874;28;20194;-79
2022/08/11 09:31:52;;;;;;;4.27;2.63;;;24.10;99.90;;;;;;5056611;28;20170;-80
2022/08/11 09:34:18;;;;;;;4.57;2.73;;;24.30;99.90;;;;;;5056585;28;20191;-79
2022/08/11 09:42:16;;;;;;;3.67;2.50;;;24.90;99.90;;;;;;5057386;28;20169;-79
2022/08/11 09:44:49;;;;;;;7.70;2.83;;;25.00;99.90;;;;;;5056901;28;20179;-79
2022/08/11 09:47:27;;;;;;;5.17;2.57;;;25.10;99.90;;;;;;5056604;28;20163;-80
2022/08/11 09:49:59;;;;;;;5.33;3.10;;;25.20;99.90;;;;;;5056810;28;20203;-80
2022/08/11 09:52:27;;;;;;;5.77;2.90;;;25.50;99.90;;;;;;5055918;28;20213;-80
2022/08/11 09:54:54;;;;;;;5.73;2.90;;;25.70;99.90;;;;;;5055876;28;20170;-80
2022/08/11 10:00:07;;;;;;;6.67;3.10;;;25.70;99.90;;;;;;5054603;28;20240;-80
2022/08/11 10:02:36;;;;;;;6.70;3.30;;;25.90;99.90;;;;;;5055324;28;20188;-80
2022/08/11 10:07:51;;;;;;;9.00;2.80;;;25.90;99.90;;;;;;5056645;28;20172;-80
2022/08/11 10:10:21;;;;;;;5.27;2.77;;;25.90;99.90;;;;;;5057672;28;21248;-81
2022/08/11 10:12:58;;;;;;;4.77;2.67;;;26.00;99.90;;;;;;5059390;28;20247;-80
2022/08/11 10:15:38;;;;;;;6.23;2.40;;;26.10;99.90;;;;;;5058081;28;20177;-80
2022/08/11 10:21:04;;;;;;;5.47;2.80;;;26.50;99.90;;;;;;5055680;28;20228;-80
2022/08/11 10:26:51;;;;;;;5.20;3.00;;;26.50;99.90;;;;;;5056743;28;20177;-79
2022/08/11 10:34:49;;;;;;;4.63;3.03;;;27.10;99.90;;;;;;5059591;28;20169;-79
2022/08/11 10:37:16;;;;;;;2.50;2.30;;;27.20;99.90;;;;;;5060560;28;20210;-79
2022/08/11 10:39:43;;;;;;;5.77;3.10;;;27.20;99.90;;;;;;5058218;28;20253;-78
2022/08/11 10:44:57;;;;;;;5.43;2.33;;;27.80;99.90;;;;;;5060301;28;20626;-78
2022/08/11 10:47:33;;;;;;;6.40;2.30;;;27.70;99.90;;;;;;5058859;28;20638;-79
2022/08/11 11:01:13;;;;;;;4.03;2.20;;;28.50;99.90;;;;;;5060592;28;20181;-79
2022/08/11 11:03:39;;;;;;;3.70;2.40;;;28.00;97.30;;;;;;5061921;28;20261;-80
2022/08/11 11:06:10;;;;;;;3.67;2.63;;;27.90;98.80;;;;;;5060077;28;20198;-80
2022/08/11 11:08:53;;;;;;;4.03;2.60;;;28.00;99.10;;;;;;5060472;28;20197;-81
2022/08/11 11:19:38;;;;;;;2.10;2.00;;;28.90;99.50;;;;;;5067302;28;20208;-80
2022/08/11 11:25:01;;;;;;;3.27;2.40;;;29.10;98.10;;;;;;5062213;28;20190;-80
2022/08/11 11:27:45;;;;;;;2.30;2.10;;;29.10;97.30;;;;;;5059535;28;20170;-81
2022/08/11 11:30:14;;;;;;;6.03;2.30;;;29.40;97.90;;;;;;5060879;28;20561;-82
2022/08/11 11:33:03;;;;;;;2.80;2.53;;;29.40;95.00;;;;;;5061289;28;20197;-81
2022/08/11 11:35:47;;;;;;;5.80;2.40;;;29.50;97.10;;;;;;5060911;28;20531;-81
2022/08/11 11:38:13;;;;;;;4.70;2.43;;;29.50;97.90;;;;;;5067201;28;20170;-80
2022/08/11 11:40:39;;;;;;;5.07;2.57;;;29.50;96.20;;;;;;5074493;28;20265;-80
2022/08/11 11:43:06;;;;;;;2.87;2.07;;;29.60;96.60;;;;;;5074523;28;20206;-81
2022/08/11 11:45:32;;;;;;;3.63;2.27;;;29.50;95.60;;;;;;5073923;28;20212;-80
2022/08/11 11:47:59;;;;;;;2.70;2.40;;;29.40;95.40;;;;;;5075085;28;20189;-80
2022/08/11 11:50:28;;;;;;;5.53;2.30;;;29.70;97.60;;;;;;5074343;28;20201;-80
2022/08/11 11:52:54;;;;;;;3.37;2.50;;;29.90;97.50;;;;;;5071089;28;20188;-78
2022/08/11 11:55:23;;;;;;;7.20;2.37;;;30.20;99.10;;;;;;5060485;28;20185;-81
2022/08/11 12:03:20;;;;;;;5.80;2.47;;;30.30;94.80;;;;;;5059439;28;20201;-82
2022/08/11 12:05:46;;;;;;;3.90;2.20;;;30.20;94.90;;;;;;5062380;28;20174;-80
2022/08/11 12:08:14;;;;;;;5.37;2.70;;;30.30;93.20;;;;;;5058966;28;20182;-82
2022/08/11 12:10:46;;;;;;;4.43;2.27;;;30.20;96.60;;;;;;5059095;28;20206;-83
2022/08/11 12:16:02;;;;;;;6.53;2.50;;;30.50;94.60;;;;;;5060300;28;20167;-80
2022/08/11 12:18:31;;;;;;;4.13;2.50;;;30.70;93.30;;;;;;5059726;28;20174;-81
2022/08/11 12:20:59;;;;;;;2.90;2.13;;;30.80;93.70;;;;;;5059260;28;20735;-82
2022/08/11 12:28:59;;;;;;;5.30;2.33;;;30.80;93.40;;;;;;5058605;28;20526;-79
2022/08/11 12:31:29;;;;;;;3.67;2.00;;;30.80;94.00;;;;;;5056185;28;20180;-77
2022/08/11 12:34:06;;;;;;;2.90;2.40;;;30.70;92.20;;;;;;5057421;28;20191;-78
2022/08/11 12:36:35;;;;;;;3.17;2.27;;;30.40;91.70;;;;;;5059640;28;20169;-79
2022/08/11 12:39:06;;;;;;;2.50;2.30;;;30.20;92.40;;;;;;5056632;28;20258;-78
2022/08/11 12:47:07;;;;;;;4.87;2.87;;;30.70;92.90;;;;;;5059217;28;20161;-80
2022/08/11 12:52:27;;;;;;;3.83;2.40;;;30.90;94.60;;;;;;5059537;28;20204;-80
2022/08/11 12:55:11;;;;;;;6.23;2.80;;;31.00;91.80;;;;;;5060759;28;20186;-80
2022/08/11 13:06:04;;;;;;;2.60;2.37;;;31.20;91.00;;;;;;5059220;28;20164;-79
2022/08/11 13:08:34;;;;;;;5.37;2.70;;;30.80;88.40;;;;;;5056410;28;20207;-80
2022/08/11 13:13:48;;;;;;;4.73;2.80;;;30.70;92.10;;;;;;5060242;28;20173;-80
2022/08/11 13:16:15;;;;;;;9.83;2.93;;;31.10;93.50;;;;;;5061797;28;20174;-79
2022/08/11 13:18:42;;;;;;;2.67;2.30;;;31.40;90.70;;;;;;5061883;28;20754;-81
2022/08/11 13:21:12;;;;;;;4.13;2.10;;;31.40;91.80;;;;;;5071440;28;20204;-81
2022/08/11 13:23:40;;;;;;;7.40;2.47;;;31.50;90.10;;;;;;5077163;28;20209;-81
2022/08/11 13:26:09;;;;;;;3.00;2.10;;;31.80;91.00;;;;;;5077859;28;20198;-81
2022/08/11 13:28:36;;;;;;;4.70;2.23;;;32.00;92.00;;;;;;5065568;28;20177;-81
2022/08/11 13:31:13;;;;;;;4.17;2.30;;;32.10;87.40;;;;;;5060709;28;20591;-82
2022/08/11 13:33:51;;;;;;;6.00;2.60;;;32.30;91.10;;;;;;5062461;28;20201;-81
2022/08/11 13:36:24;;;;;;;4.60;2.30;;;32.40;87.10;;;;;;5062042;28;20161;-81
2022/08/11 13:38:54;;;;;;;3.33;2.00;;;32.40;82.60;;;;;;5062135;28;20155;-81
2022/08/11 13:41:38;;;;;;;2.73;1.97;;;32.50;85.80;;;;;;5062593;28;20280;-81
2022/08/11 13:44:09;;;;;;;4.47;2.40;;;32.40;82.90;;;;;;5060775;28;20207;-81
2022/08/11 13:46:35;;;;;;;4.77;2.37;;;32.40;82.00;;;;;;5063335;28;20182;-81
2022/08/11 13:49:02;;;;;;;4.43;2.20;;;32.60;84.10;;;;;;5062659;28;20182;-82
2022/08/11 13:51:29;;;;;;;2.30;2.10;;;32.60;84.30;;;;;;5061949;28;20205;-82
2022/08/11 13:53:57;;;;;;;3.37;2.23;;;32.90;84.60;;;;;;5068079;28;20203;-80
2022/08/11 13:56:24;;;;;;;3.80;2.10;;;33.10;84.50;;;;;;5071197;28;20199;-79
2022/08/11 13:58:51;;;;;;;3.13;2.23;;;32.70;78.90;;;;;;5065520;28;20229;-78
2022/08/11 14:01:19;;;;;;;5.17;2.17;;;32.70;79.60;;;;;;5059884;28;20196;-79
2022/08/11 14:03:48;;;;;;;4.17;2.00;;;32.60;83.30;;;;;;5062258;28;20208;-78
2022/08/11 14:06:17;;;;;;;3.07;2.13;;;32.80;82.80;;;;;;5058858;28;20184;-79
2022/08/11 14:08:44;;;;;;;5.03;2.00;;;32.60;77.10;;;;;;5062435;28;20190;-79
2022/08/11 14:13:57;;;;;;;3.33;2.17;;;32.40;82.50;;;;;;5061332;28;20551;-80
2022/08/11 14:16:32;;;;;;;4.10;2.30;;;32.20;76.50;;;;;;5061075;28;20177;-80
2022/08/11 14:19:03;;;;;;;3.63;2.27;;;32.20;83.70;;;;;;5060622;28;20211;-80
2022/08/11 14:24:17;;;;;;;2.93;2.47;;;31.90;79.80;;;;;;5061347;28;20662;-80
2022/08/11 14:26:44;;;;;;;2.20;2.00;;;31.90;82.80;;;;;;5060417;28;20716;-80
2022/08/11 14:29:21;;;;;;;3.57;2.07;;;32.40;77.60;;;;;;5059431;28;20199;-80
2022/08/11 14:31:56;;;;;;;1.70;1.60;;;32.50;82.00;;;;;;5059534;28;20292;-80
2022/08/11 14:34:23;;;;;;;3.17;2.10;;;32.90;78.20;;;;;;5060739;28;20182;-80
2022/08/11 14:36:56;;;;;;;8.67;2.97;;;32.90;75.50;;;;;;5060982;28;20184;-80
2022/08/11 14:39:28;;;;;;;5.53;2.50;;;32.80;73.50;;;;;;5059641;28;20197;-80
2022/08/11 14:47:39;;;;;;;2.63;2.20;;;;;;;;;;5060764;28;20207;-80
2022/08/11 14:50:10;;;;;;;4.83;2.30;;;31.90;79.00;;;;;;5059706;28;20545;-80
2022/08/11 14:52:37;;;;;;;3.17;1.90;;;32.00;77.40;;;;;;5059457;28;20171;-80
2022/08/11 14:57:50;;;;;;;3.93;1.97;;;31.90;83.00;;;;;;5061363;28;20703;-82
2022/08/11 15:00:17;;;;;;;3.07;2.40;;;32.50;72.30;;;;;;5059850;28;20566;-80
2022/08/11 15:05:32;;;;;;;3.70;2.00;;;32.40;70.00;;;;;;5061679;28;20185;-81
2022/08/11 15:07:58;;;;;;;2.47;2.20;;;32.20;77.30;;;;;;5059533;28;20665;-81
2022/08/11 15:10:25;;;;;;;6.50;2.63;;;31.90;70.20;;;;;;5059743;28;20576;-81
2022/08/11 15:12:51;;;;;;;5.23;2.30;;;31.70;73.30;;;;;;5066511;28;20180;-80
2022/08/11 15:18:09;;;;;;;3.73;1.67;;;31.30;74.70;;;;;;5074043;28;20190;-80
2022/08/11 15:26:11;;;;;;;4.00;2.00;;;31.10;72.50;;;;;;5058630;28;20164;-81
2022/08/11 15:46:09;;;;;;;5.27;2.30;;;29.80;80.20;;;;;;5059763;28;20179;-81
2022/08/11 15:48:47;;;;;;;5.80;2.70;;;30.00;78.80;;;;;;5058107;28;20176;-81
2022/08/11 15:52:00;;;;;;;2.37;2.17;;;30.00;78.30;;;;;;5057836;28;20258;-81
2022/08/11 15:54:30;;;;;;;2.40;2.10;;;29.10;77.00;;;;;;5053250;28;20554;-81
2022/08/11 15:57:00;;;;;;;4.13;2.20;;;29.00;77.60;;;;;;5058405;28;20246;-81
2022/08/11 16:05:06;;;;;;;2.87;2.13;;;27.10;82.90;;;;;;5060075;28;20308;-81
2022/08/11 16:07:34;;;;;;;4.77;2.40;;;26.70;81.70;;;;;;5058447;28;20257;-81
2022/08/11 16:10:08;;;;;;;3.87;2.20;;;26.90;81.20;;;;;;5062505;28;20225;-81
2022/08/11 16:18:20;;;;;;;5.77;2.27;;;27.70;80.40;;;;;;5061313;28;20246;-81
2022/08/11 16:20:48;;;;;;;2.10;1.90;;;27.20;80.30;;;;;;5057274;28;20209;-81
2022/08/11 16:23:16;;;;;;;2.03;1.87;;;26.70;78.10;;;;;;5059098;28;20212;-81
2022/08/11 16:25:43;;;;;;;2.53;1.90;;;26.20;79.40;;;;;;5059197;28;20175;-81
2022/08/11 16:28:12;;;;;;;2.37;1.87;;;25.70;80.80;;;;;;5057665;28;20184;-81
2022/08/11 16:30:42;;;;;;;3.87;2.10;;;25.10;81.50;;;;;;5058952;28;20215;-81
2022/08/11 16:33:10;;;;;;;3.77;2.40;;;24.90;82.00;;;;;;5062877;28;20206;-81
2022/08/11 16:38:34;;;;;;;7.93;2.03;;;24.80;83.40;;;;;;5058982;28;20172;-81
2022/08/11 16:41:04;;;;;;;3.63;2.30;;;24.50;82.80;;;;;;5058922;28;20276;-80
2022/08/11 16:49:12;;;;;;;3.23;2.30;;;24.30;83.00;;;;;;5061017;28;20705;-81
2022/08/11 16:51:38;;;;;;;7.43;2.40;;;24.30;82.40;;;;;;5060813;28;20176;-81
2022/08/11 16:54:04;;;;;;;2.60;2.10;;;24.30;83.00;;;;;;5063602;28;20249;-81
2022/08/11 16:56:50;;;;;;;2.53;2.23;;;24.30;84.20;;;;;;5063889;28;20544;-81
2022/08/11 16:59:27;;;;;;;4.87;2.30;;;24.30;81.30;;;;;;5067291;28;20197;-80
2022/08/11 17:01:57;;;;;;;3.27;2.17;;;24.30;82.10;;;;;;5063068;28;20616;-82
2022/08/11 17:13:17;;;;;;;3.00;2.33;;;24.00;82.90;;;;;;5064056;28;20601;-84
2022/08/11 17:16:06;;;;;;;3.47;2.27;;;23.80;83.10;;;;;;5062075;28;20218;-84
2022/08/11 17:18:57;;;;;;;7.00;2.47;;;24.00;82.90;;;;;;5061863;28;20176;-83
2022/08/11 17:21:28;;;;;;;5.27;2.20;;;23.90;82.90;;;;;;5061385;28;20201;-84
2022/08/11 17:24:06;;;;;;;2.20;1.97;;;23.80;84.90;;;;;;5062526;28;20198;-83
2022/08/11 17:26:57;;;;;;;4.57;1.90;;;23.70;85.00;;;;;;5063377;28;20197;-82
2022/08/11 17:29:43;;;;;;;2.27;1.97;;;23.30;83.70;;;;;;5057912;28;20208;-81
2022/08/11 17:37:50;;;;;;;3.57;2.10;;;23.30;85.30;;;;;;5059791;28;20278;-80
2022/08/11 17:40:24;;;;;;;4.47;1.87;;;23.20;82.50;;;;;;5061825;28;20189;-80
2022/08/11 17:48:31;;;;;;;2.57;2.10;;;23.00;82.40;;;;;;5067247;28;20180;-81
2022/08/11 17:51:03;;;;;;;2.40;2.20;;;23.00;83.90;;;;;;5059688;28;20181;-82
2022/08/11 18:01:53;;;;;;;2.80;2.07;;;22.60;81.70;;;;;;5051954;28;20196;-83
2022/08/11 18:04:21;;;;;;;2.47;2.10;;;22.70;86.80;;;;;;5056660;28;20263;-81
2022/08/11 18:06:48;;;;;;;2.10;2.00;;;22.50;90.60;;;;;;5059117;28;20174;-82
